Salina Municipal Airport
KSLN : rendu visible

Aérodrome :











RETROUVEZ-NOUS SUR...

 
LOGIN :

S'inscrire | Disclaimer

   EN    FR    IT 

 









Légende :    VFR   VFR Marginal   IFR   IFR Intensif   IFR Très Intensif
Visi : 
Plafond : 
>= 8 km
>= 3000ft
5 à 8 km
1000 à 3000 ft
1500m à 5 km
500 à 1000 ft
800 à 1500m
200 à 500 ft
< 800m
< 200 ft
Symboles :   Orages  Brouillard  Fortes neiges  Fortes précipitations  Vent > 20 kt






- Altitude de l'aérodrome : 1288 ft
- Code IATA : SLN


KSLN - Salina Municipal

DERNIER METAR :
  • 222253Z 35007KT 10SM OVC009 M01/M03 A3013 RMK AO2 SLP215 T10111033

METARs EXPIRÉS :
  • 222153Z 03005KT 10SM OVC009 M01/M03 A3014 RMK AO2 SLP218 T10061028
  • 222053Z 02008KT 8SM OVC007 M01/M03 A3015 RMK AO2 SNB1956E26 SLP220 P0000 60001 T10111028 58020
  • 222025Z 01008KT 3SM -SN BR OVC008 M01/M03 A3017 RMK AO2 SNB1956 CIG 005V010 P0000 T10111028
  • 222004Z 01007KT 2SM -SN BR OVC007 M01/M03 A3017 RMK AO2 SNB1956 P0000 T10111028

TAF KSLN
Valide du 22 à 22h jusqu'au 23 à 18h UTC


222147Z 2222/2318 01007KT P6SM SCT008 OVC015
TEMPO 2222/2224 5SM -SN OVC008
FM230300 30004KT P6SM SCT015 BKN025
FM230800 26004KT P6SM SCT025



MET'MAP, la Météo Aéronautique d'un coup d'oeil ! - Copyright ORBIFLY Décembre 2007 - Disclaimer

ORBIFLY MET'MAP TEAM :

Programmation & Développement : Alexandra Zaïnal
Conception & Développement : Baudouin d'Aumeries
Co-Programmation & Développement : Marc-Olivier Méhu
Soutien technique & logistique : Manuel Goepfert

Contact : metmap@orbifly.com




SOURCES & CREDITS :

   NOAA       Earth
Advisory